sensor_id;sensor_type;location;lat;lon;timestamp;P1;durP1;ratioP1;P2;durP2;ratioP2
77423;SDS011;66494;47.172;14.678;2024-01-15T00:00:43;2.08;;;0.80;;
77423;SDS011;66494;47.172;14.678;2024-01-15T00:02:44;5.53;;;2.38;;
77423;SDS011;66494;47.172;14.678;2024-01-15T00:03:44;6.45;;;2.20;;
77423;SDS011;66494;47.172;14.678;2024-01-15T00:05:44;7.07;;;1.35;;
77423;SDS011;66494;47.172;14.678;2024-01-15T00:06:45;2.78;;;1.45;;
77423;SDS011;66494;47.172;14.678;2024-01-15T00:08:45;6.53;;;1.20;;
77423;SDS011;66494;47.172;14.678;2024-01-15T00:10:45;4.10;;;1.35;;
77423;SDS011;66494;47.172;14.678;2024-01-15T00:12:46;1.80;;;1.13;;
77423;SDS011;66494;47.172;14.678;2024-01-15T00:14:46;3.30;;;2.08;;
77423;SDS011;66494;47.172;14.678;2024-01-15T00:15:46;6.25;;;2.92;;
77423;SDS011;66494;47.172;14.678;2024-01-15T00:17:48;1.85;;;1.15;;
77423;SDS011;66494;47.172;14.678;2024-01-15T00:19:49;2.72;;;2.35;;
77423;SDS011;66494;47.172;14.678;2024-01-15T00:20:49;4.45;;;1.88;;
77423;SDS011;66494;47.172;14.678;2024-01-15T00:22:49;4.80;;;1.90;;
77423;SDS011;66494;47.172;14.678;2024-01-15T00:23:50;3.53;;;1.95;;
77423;SDS011;66494;47.172;14.678;2024-01-15T00:25:51;2.60;;;1.30;;
77423;SDS011;66494;47.172;14.678;2024-01-15T00:27:51;3.07;;;2.07;;
77423;SDS011;66494;47.172;14.678;2024-01-15T00:29:52;3.28;;;1.70;;
77423;SDS011;66494;47.172;14.678;2024-01-15T00:30:52;5.82;;;2.00;;
77423;SDS011;66494;47.172;14.678;2024-01-15T00:32:52;3.72;;;1.75;;
77423;SDS011;66494;47.172;14.678;2024-01-15T00:33:53;5.80;;;2.47;;
77423;SDS011;66494;47.172;14.678;2024-01-15T00:35:53;3.03;;;1.60;;
77423;SDS011;66494;47.172;14.678;2024-01-15T00:37:53;7.20;;;3.17;;
77423;SDS011;66494;47.172;14.678;2024-01-15T00:38:54;4.63;;;2.33;;
77423;SDS011;66494;47.172;14.678;2024-01-15T00:40:54;3.55;;;1.73;;
77423;SDS011;66494;47.172;14.678;2024-01-15T00:42:54;2.10;;;1.67;;
77423;SDS011;66494;47.172;14.678;2024-01-15T00:44:55;2.88;;;1.83;;
77423;SDS011;66494;47.172;14.678;2024-01-15T00:46:55;4.07;;;2.00;;
77423;SDS011;66494;47.172;14.678;2024-01-15T00:48:56;5.22;;;1.88;;
77423;SDS011;66494;47.172;14.678;2024-01-15T00:50:57;1.45;;;1.00;;
77423;SDS011;66494;47.172;14.678;2024-01-15T00:51:57;1.48;;;0.95;;
77423;SDS011;66494;47.172;14.678;2024-01-15T00:52:57;3.03;;;1.35;;
77423;SDS011;66494;47.172;14.678;2024-01-15T00:54:57;1.40;;;1.00;;
77423;SDS011;66494;47.172;14.678;2024-01-15T00:55:58;6.65;;;2.83;;
77423;SDS011;66494;47.172;14.678;2024-01-15T00:57:58;5.60;;;2.15;;
77423;SDS011;66494;47.172;14.678;2024-01-15T00:58:59;6.63;;;2.83;;
77423;SDS011;66494;47.172;14.678;2024-01-15T01:00:59;12.67;;;3.13;;
77423;SDS011;66494;47.172;14.678;2024-01-15T01:03:00;5.55;;;2.60;;
77423;SDS011;66494;47.172;14.678;2024-01-15T01:04:00;6.65;;;3.63;;
77423;SDS011;66494;47.172;14.678;2024-01-15T01:06:00;6.35;;;2.67;;
77423;SDS011;66494;47.172;14.678;2024-01-15T01:07:00;4.68;;;2.55;;
77423;SDS011;66494;47.172;14.678;2024-01-15T01:09:01;4.50;;;2.95;;
77423;SDS011;66494;47.172;14.678;2024-01-15T01:10:01;6.38;;;2.65;;
77423;SDS011;66494;47.172;14.678;2024-01-15T01:12:01;2.53;;;1.23;;
77423;SDS011;66494;47.172;14.678;2024-01-15T01:14:02;7.78;;;3.05;;
77423;SDS011;66494;47.172;14.678;2024-01-15T01:16:03;5.17;;;1.87;;
77423;SDS011;66494;47.172;14.678;2024-01-15T01:18:03;5.05;;;2.15;;
77423;SDS011;66494;47.172;14.678;2024-01-15T01:20:04;2.83;;;1.67;;
77423;SDS011;66494;47.172;14.678;2024-01-15T01:21:06;5.55;;;2.58;;
77423;SDS011;66494;47.172;14.678;2024-01-15T01:23:06;4.35;;;1.52;;
77423;SDS011;66494;47.172;14.678;2024-01-15T01:25:07;4.57;;;2.13;;
77423;SDS011;66494;47.172;14.678;2024-01-15T01:27:07;6.10;;;3.30;;
77423;SDS011;66494;47.172;14.678;2024-01-15T01:29:08;2.42;;;0.93;;
77423;SDS011;66494;47.172;14.678;2024-01-15T01:30:08;6.03;;;3.35;;
77423;SDS011;66494;47.172;14.678;2024-01-15T01:32:08;8.93;;;3.58;;
77423;SDS011;66494;47.172;14.678;2024-01-15T01:33:09;7.20;;;3.83;;
77423;SDS011;66494;47.172;14.678;2024-01-15T01:35:09;9.95;;;4.57;;
77423;SDS011;66494;47.172;14.678;2024-01-15T01:37:12;6.22;;;3.15;;
77423;SDS011;66494;47.172;14.678;2024-01-15T01:38:13;9.20;;;4.57;;
77423;SDS011;66494;47.172;14.678;2024-01-15T01:40:14;7.85;;;3.90;;
77423;SDS011;66494;47.172;14.678;2024-01-15T01:42:15;3.20;;;2.03;;
77423;SDS011;66494;47.172;14.678;2024-01-15T01:44:15;3.63;;;2.00;;
77423;SDS011;66494;47.172;14.678;2024-01-15T01:45:15;3.75;;;1.55;;
77423;SDS011;66494;47.172;14.678;2024-01-15T01:47:16;4.78;;;1.58;;
77423;SDS011;66494;47.172;14.678;2024-01-15T01:49:17;4.85;;;2.20;;
77423;SDS011;66494;47.172;14.678;2024-01-15T01:51:17;2.03;;;1.20;;
77423;SDS011;66494;47.172;14.678;2024-01-15T01:53:18;2.28;;;1.38;;
77423;SDS011;66494;47.172;14.678;2024-01-15T01:54:18;2.58;;;1.02;;
77423;SDS011;66494;47.172;14.678;2024-01-15T01:55:20;6.72;;;2.00;;
77423;SDS011;66494;47.172;14.678;2024-01-15T01:57:20;3.87;;;1.70;;
77423;SDS011;66494;47.172;14.678;2024-01-15T01:59:21;3.97;;;1.67;;
77423;SDS011;66494;47.172;14.678;2024-01-15T02:00:23;5.68;;;2.10;;
77423;SDS011;66494;47.172;14.678;2024-01-15T02:01:24;4.53;;;1.40;;
77423;SDS011;66494;47.172;14.678;2024-01-15T02:03:24;4.40;;;1.90;;
77423;SDS011;66494;47.172;14.678;2024-01-15T02:04:25;5.03;;;1.70;;
77423;SDS011;66494;47.172;14.678;2024-01-15T02:05:26;6.22;;;2.83;;
77423;SDS011;66494;47.172;14.678;2024-01-15T02:07:27;2.10;;;1.43;;
77423;SDS011;66494;47.172;14.678;2024-01-15T02:08:27;2.88;;;1.33;;
77423;SDS011;66494;47.172;14.678;2024-01-15T02:10:28;3.92;;;1.60;;
77423;SDS011;66494;47.172;14.678;2024-01-15T02:12:28;4.93;;;2.10;;
77423;SDS011;66494;47.172;14.678;2024-01-15T02:13:28;2.35;;;1.20;;
77423;SDS011;66494;47.172;14.678;2024-01-15T02:15:29;1.55;;;1.05;;
77423;SDS011;66494;47.172;14.678;2024-01-15T02:17:30;2.17;;;0.63;;
77423;SDS011;66494;47.172;14.678;2024-01-15T02:19:30;1.15;;;1.05;;
77423;SDS011;66494;47.172;14.678;2024-01-15T02:20:31;4.60;;;1.33;;
77423;SDS011;66494;47.172;14.678;2024-01-15T02:21:31;3.35;;;2.35;;
77423;SDS011;66494;47.172;14.678;2024-01-15T02:22:32;3.10;;;1.30;;
77423;SDS011;66494;47.172;14.678;2024-01-15T02:23:32;3.90;;;1.58;;
77423;SDS011;66494;47.172;14.678;2024-01-15T02:25:32;2.83;;;1.60;;
77423;SDS011;66494;47.172;14.678;2024-01-15T02:27:35;3.13;;;1.35;;
77423;SDS011;66494;47.172;14.678;2024-01-15T02:28:36;2.38;;;1.02;;
77423;SDS011;66494;47.172;14.678;2024-01-15T02:30:39;0.95;;;0.65;;
77423;SDS011;66494;47.172;14.678;2024-01-15T02:31:40;4.10;;;1.92;;
77423;SDS011;66494;47.172;14.678;2024-01-15T02:32:41;4.75;;;1.77;;
77423;SDS011;66494;47.172;14.678;2024-01-15T02:34:42;5.15;;;1.85;;
77423;SDS011;66494;47.172;14.678;2024-01-15T02:36:42;7.05;;;2.47;;
77423;SDS011;66494;47.172;14.678;2024-01-15T02:38:42;3.67;;;1.55;;
77423;SDS011;66494;47.172;14.678;2024-01-15T02:39:43;6.25;;;2.92;;
77423;SDS011;66494;47.172;14.678;2024-01-15T02:41:43;6.57;;;2.42;;
77423;SDS011;66494;47.172;14.678;2024-01-15T02:42:43;3.17;;;1.90;;
77423;SDS011;66494;47.172;14.678;2024-01-15T02:44:44;4.35;;;2.13;;
77423;SDS011;66494;47.172;14.678;2024-01-15T02:46:44;6.57;;;3.08;;
77423;SDS011;66494;47.172;14.678;2024-01-15T02:47:44;4.15;;;2.25;;
77423;SDS011;66494;47.172;14.678;2024-01-15T02:49:45;2.08;;;0.88;;
77423;SDS011;66494;47.172;14.678;2024-01-15T02:51:45;4.45;;;1.55;;
77423;SDS011;66494;47.172;14.678;2024-01-15T02:52:46;5.05;;;1.73;;
77423;SDS011;66494;47.172;14.678;2024-01-15T02:53:47;5.47;;;2.15;;
77423;SDS011;66494;47.172;14.678;2024-01-15T02:55:48;2.43;;;1.57;;
77423;SDS011;66494;47.172;14.678;2024-01-15T02:57:48;1.25;;;0.63;;
77423;SDS011;66494;47.172;14.678;2024-01-15T02:59:48;4.90;;;2.65;;
77423;SDS011;66494;47.172;14.678;2024-01-15T03:00:49;3.58;;;0.98;;
77423;SDS011;66494;47.172;14.678;2024-01-15T03:02:50;3.20;;;1.05;;
77423;SDS011;66494;47.172;14.678;2024-01-15T03:03:50;2.05;;;1.45;;
77423;SDS011;66494;47.172;14.678;2024-01-15T03:04:51;5.18;;;2.42;;
77423;SDS011;66494;47.172;14.678;2024-01-15T03:06:51;5.50;;;2.03;;
77423;SDS011;66494;47.172;14.678;2024-01-15T03:08:51;2.42;;;1.17;;
77423;SDS011;66494;47.172;14.678;2024-01-15T03:09:51;2.33;;;1.52;;
77423;SDS011;66494;47.172;14.678;2024-01-15T03:11:52;0.85;;;0.57;;
77423;SDS011;66494;47.172;14.678;2024-01-15T03:13:52;4.22;;;2.03;;
77423;SDS011;66494;47.172;14.678;2024-01-15T03:14:52;4.82;;;2.28;;
77423;SDS011;66494;47.172;14.678;2024-01-15T03:16:53;3.45;;;1.40;;
77423;SDS011;66494;47.172;14.678;2024-01-15T03:17:53;4.57;;;2.28;;
77423;SDS011;66494;47.172;14.678;2024-01-15T03:19:54;6.18;;;1.45;;
77423;SDS011;66494;47.172;14.678;2024-01-15T03:20:54;5.55;;;2.38;;
77423;SDS011;66494;47.172;14.678;2024-01-15T03:22:55;5.10;;;1.98;;
77423;SDS011;66494;47.172;14.678;2024-01-15T03:24:55;6.45;;;2.30;;
77423;SDS011;66494;47.172;14.678;2024-01-15T03:26:55;6.35;;;1.75;;
77423;SDS011;66494;47.172;14.678;2024-01-15T03:27:56;9.88;;;2.38;;
77423;SDS011;66494;47.172;14.678;2024-01-15T03:29:56;6.85;;;2.08;;
77423;SDS011;66494;47.172;14.678;2024-01-15T03:31:56;3.22;;;1.95;;
77423;SDS011;66494;47.172;14.678;2024-01-15T03:32:57;5.30;;;2.28;;
77423;SDS011;66494;47.172;14.678;2024-01-15T03:34:57;5.95;;;2.67;;
77423;SDS011;66494;47.172;14.678;2024-01-15T03:35:58;3.67;;;1.95;;
77423;SDS011;66494;47.172;14.678;2024-01-15T03:37:59;4.73;;;2.17;;
77423;SDS011;66494;47.172;14.678;2024-01-15T03:38:59;3.28;;;1.10;;
77423;SDS011;66494;47.172;14.678;2024-01-15T03:40:59;4.13;;;1.67;;
77423;SDS011;66494;47.172;14.678;2024-01-15T03:43:00;3.95;;;1.50;;
77423;SDS011;66494;47.172;14.678;2024-01-15T03:44:00;3.70;;;2.42;;
77423;SDS011;66494;47.172;14.678;2024-01-15T03:46:01;5.77;;;2.27;;
77423;SDS011;66494;47.172;14.678;2024-01-15T03:48:02;7.13;;;1.37;;
77423;SDS011;66494;47.172;14.678;2024-01-15T03:50:02;5.40;;;1.95;;
77423;SDS011;66494;47.172;14.678;2024-01-15T03:52:03;3.13;;;1.90;;
77423;SDS011;66494;47.172;14.678;2024-01-15T03:54:03;4.25;;;1.60;;
77423;SDS011;66494;47.172;14.678;2024-01-15T03:55:04;3.85;;;1.95;;
77423;SDS011;66494;47.172;14.678;2024-01-15T03:57:05;3.53;;;0.57;;
77423;SDS011;66494;47.172;14.678;2024-01-15T03:58:05;2.97;;;1.60;;
77423;SDS011;66494;47.172;14.678;2024-01-15T04:00:06;3.83;;;1.73;;
77423;SDS011;66494;47.172;14.678;2024-01-15T04:01:10;4.65;;;2.53;;
77423;SDS011;66494;47.172;14.678;2024-01-15T04:02:10;4.60;;;2.10;;
77423;SDS011;66494;47.172;14.678;2024-01-15T04:03:10;3.50;;;1.73;;
77423;SDS011;66494;47.172;14.678;2024-01-15T04:05:11;2.25;;;1.33;;
77423;SDS011;66494;47.172;14.678;2024-01-15T04:07:11;2.42;;;1.20;;
77423;SDS011;66494;47.172;14.678;2024-01-15T04:08:11;5.40;;;2.85;;
77423;SDS011;66494;47.172;14.678;2024-01-15T04:10:12;3.85;;;1.73;;
77423;SDS011;66494;47.172;14.678;2024-01-15T04:11:12;3.95;;;2.00;;
77423;SDS011;66494;47.172;14.678;2024-01-15T04:13:12;4.97;;;1.80;;
77423;SDS011;66494;47.172;14.678;2024-01-15T04:14:12;8.85;;;2.67;;
77423;SDS011;66494;47.172;14.678;2024-01-15T04:16:13;4.45;;;1.98;;
77423;SDS011;66494;47.172;14.678;2024-01-15T04:18:15;4.05;;;2.22;;
77423;SDS011;66494;47.172;14.678;2024-01-15T04:19:15;4.95;;;2.05;;
77423;SDS011;66494;47.172;14.678;2024-01-15T04:20:16;4.45;;;1.80;;
77423;SDS011;66494;47.172;14.678;2024-01-15T04:22:16;5.55;;;2.05;;
77423;SDS011;66494;47.172;14.678;2024-01-15T04:23:16;4.55;;;2.42;;
77423;SDS011;66494;47.172;14.678;2024-01-15T04:25:18;5.20;;;2.30;;
77423;SDS011;66494;47.172;14.678;2024-01-15T04:26:18;5.68;;;1.83;;
77423;SDS011;66494;47.172;14.678;2024-01-15T04:28:18;4.93;;;1.98;;
77423;SDS011;66494;47.172;14.678;2024-01-15T04:30:19;6.53;;;2.17;;
77423;SDS011;66494;47.172;14.678;2024-01-15T04:31:23;5.32;;;2.10;;
77423;SDS011;66494;47.172;14.678;2024-01-15T04:32:23;5.10;;;2.10;;
77423;SDS011;66494;47.172;14.678;2024-01-15T04:33:23;3.03;;;1.88;;
77423;SDS011;66494;47.172;14.678;2024-01-15T04:35:23;7.03;;;3.28;;
77423;SDS011;66494;47.172;14.678;2024-01-15T04:37:24;10.73;;;4.07;;
77423;SDS011;66494;47.172;14.678;2024-01-15T04:38:24;9.18;;;3.97;;
77423;SDS011;66494;47.172;14.678;2024-01-15T04:40:24;12.00;;;3.35;;
77423;SDS011;66494;47.172;14.678;2024-01-15T04:41:27;11.25;;;3.97;;
77423;SDS011;66494;47.172;14.678;2024-01-15T04:42:27;8.02;;;4.10;;
77423;SDS011;66494;47.172;14.678;2024-01-15T04:44:28;7.10;;;4.22;;
77423;SDS011;66494;47.172;14.678;2024-01-15T04:45:28;11.43;;;4.63;;
77423;SDS011;66494;47.172;14.678;2024-01-15T04:47:28;10.40;;;4.20;;
77423;SDS011;66494;47.172;14.678;2024-01-15T04:49:29;10.07;;;4.75;;
77423;SDS011;66494;47.172;14.678;2024-01-15T04:51:30;7.47;;;3.67;;
77423;SDS011;66494;47.172;14.678;2024-01-15T04:53:30;8.70;;;3.92;;
77423;SDS011;66494;47.172;14.678;2024-01-15T04:55:30;8.38;;;4.57;;
77423;SDS011;66494;47.172;14.678;2024-01-15T04:57:31;15.50;;;5.22;;
77423;SDS011;66494;47.172;14.678;2024-01-15T04:59:31;8.02;;;4.38;;
77423;SDS011;66494;47.172;14.678;2024-01-15T05:01:32;14.02;;;4.75;;
77423;SDS011;66494;47.172;14.678;2024-01-15T05:03:32;10.10;;;5.27;;
77423;SDS011;66494;47.172;14.678;2024-01-15T05:05:33;8.55;;;4.63;;
77423;SDS011;66494;47.172;14.678;2024-01-15T05:07:33;10.73;;;4.70;;
77423;SDS011;66494;47.172;14.678;2024-01-15T05:09:33;9.10;;;4.20;;
77423;SDS011;66494;47.172;14.678;2024-01-15T05:11:34;7.72;;;4.05;;
77423;SDS011;66494;47.172;14.678;2024-01-15T05:13:34;8.82;;;3.70;;
77423;SDS011;66494;47.172;14.678;2024-01-15T05:15:35;10.18;;;4.82;;
77423;SDS011;66494;47.172;14.678;2024-01-15T05:17:35;8.18;;;4.47;;
77423;SDS011;66494;47.172;14.678;2024-01-15T05:19:37;9.32;;;4.35;;
77423;SDS011;66494;47.172;14.678;2024-01-15T05:21:37;9.98;;;5.03;;
77423;SDS011;66494;47.172;14.678;2024-01-15T05:23:37;10.25;;;4.65;;
77423;SDS011;66494;47.172;14.678;2024-01-15T05:25:38;10.38;;;4.55;;
77423;SDS011;66494;47.172;14.678;2024-01-15T05:27:39;11.77;;;5.20;;
77423;SDS011;66494;47.172;14.678;2024-01-15T05:29:39;10.63;;;4.82;;
77423;SDS011;66494;47.172;14.678;2024-01-15T05:31:39;9.77;;;4.32;;
77423;SDS011;66494;47.172;14.678;2024-01-15T05:33:40;7.90;;;4.30;;
77423;SDS011;66494;47.172;14.678;2024-01-15T05:35:40;10.25;;;5.00;;
77423;SDS011;66494;47.172;14.678;2024-01-15T05:37:42;10.98;;;5.20;;
77423;SDS011;66494;47.172;14.678;2024-01-15T05:38:42;10.45;;;5.25;;
77423;SDS011;66494;47.172;14.678;2024-01-15T05:40:43;11.13;;;5.28;;
77423;SDS011;66494;47.172;14.678;2024-01-15T05:42:43;9.25;;;4.45;;
77423;SDS011;66494;47.172;14.678;2024-01-15T05:44:44;11.73;;;6.22;;
77423;SDS011;66494;47.172;14.678;2024-01-15T05:46:44;10.57;;;5.20;;
77423;SDS011;66494;47.172;14.678;2024-01-15T05:48:45;12.93;;;6.25;;
77423;SDS011;66494;47.172;14.678;2024-01-15T05:50:45;10.57;;;5.43;;
77423;SDS011;66494;47.172;14.678;2024-01-15T05:52:45;13.30;;;6.43;;
77423;SDS011;66494;47.172;14.678;2024-01-15T05:54:46;11.25;;;5.53;;
77423;SDS011;66494;47.172;14.678;2024-01-15T05:56:46;12.23;;;5.38;;
77423;SDS011;66494;47.172;14.678;2024-01-15T05:58:46;11.60;;;5.53;;
77423;SDS011;66494;47.172;14.678;2024-01-15T06:00:47;12.50;;;5.45;;
77423;SDS011;66494;47.172;14.678;2024-01-15T06:02:48;11.87;;;5.70;;
77423;SDS011;66494;47.172;14.678;2024-01-15T06:04:48;14.38;;;5.65;;
77423;SDS011;66494;47.172;14.678;2024-01-15T06:06:48;13.52;;;5.18;;
77423;SDS011;66494;47.172;14.678;2024-01-15T06:08:49;8.80;;;4.75;;
77423;SDS011;66494;47.172;14.678;2024-01-15T06:10:49;9.43;;;4.63;;
77423;SDS011;66494;47.172;14.678;2024-01-15T06:12:49;9.73;;;5.03;;
77423;SDS011;66494;47.172;14.678;2024-01-15T06:14:50;8.70;;;4.03;;
77423;SDS011;66494;47.172;14.678;2024-01-15T06:16:50;11.00;;;4.75;;
77423;SDS011;66494;47.172;14.678;2024-01-15T06:18:51;9.50;;;5.13;;
77423;SDS011;66494;47.172;14.678;2024-01-15T06:20:51;11.15;;;5.32;;
77423;SDS011;66494;47.172;14.678;2024-01-15T06:22:51;10.45;;;5.45;;
77423;SDS011;66494;47.172;14.678;2024-01-15T06:24:52;11.20;;;5.00;;
77423;SDS011;66494;47.172;14.678;2024-01-15T06:26:52;9.82;;;5.13;;
77423;SDS011;66494;47.172;14.678;2024-01-15T06:28:53;13.63;;;5.95;;
77423;SDS011;66494;47.172;14.678;2024-01-15T06:30:53;9.27;;;4.65;;
77423;SDS011;66494;47.172;14.678;2024-01-15T06:32:53;9.40;;;4.88;;
77423;SDS011;66494;47.172;14.678;2024-01-15T06:34:54;9.93;;;3.60;;
77423;SDS011;66494;47.172;14.678;2024-01-15T06:36:54;10.75;;;4.43;;
77423;SDS011;66494;47.172;14.678;2024-01-15T06:38:55;9.40;;;4.80;;
77423;SDS011;66494;47.172;14.678;2024-01-15T06:40:56;27.55;;;12.10;;
77423;SDS011;66494;47.172;14.678;2024-01-15T06:42:57;28.92;;;13.52;;
77423;SDS011;66494;47.172;14.678;2024-01-15T06:44:57;20.90;;;9.73;;
77423;SDS011;66494;47.172;14.678;2024-01-15T06:46:58;21.48;;;9.45;;
77423;SDS011;66494;47.172;14.678;2024-01-15T06:48:02;10.60;;;6.25;;
77423;SDS011;66494;47.172;14.678;2024-01-15T06:50:03;17.38;;;7.13;;
77423;SDS011;66494;47.172;14.678;2024-01-15T06:51:04;12.90;;;6.78;;
77423;SDS011;66494;47.172;14.678;2024-01-15T06:53:06;9.20;;;5.73;;
77423;SDS011;66494;47.172;14.678;2024-01-15T06:55:06;13.95;;;7.25;;
77423;SDS011;66494;47.172;14.678;2024-01-15T06:57:07;13.40;;;7.10;;
77423;SDS011;66494;47.172;14.678;2024-01-15T06:59:07;14.10;;;6.60;;
77423;SDS011;66494;47.172;14.678;2024-01-15T07:01:08;15.50;;;6.88;;
77423;SDS011;66494;47.172;14.678;2024-01-15T07:03:08;16.65;;;7.18;;
77423;SDS011;66494;47.172;14.678;2024-01-15T07:05:09;13.77;;;5.93;;
77423;SDS011;66494;47.172;14.678;2024-01-15T07:07:09;14.20;;;6.60;;
77423;SDS011;66494;47.172;14.678;2024-01-15T07:09:10;21.40;;;8.35;;
77423;SDS011;66494;47.172;14.678;2024-01-15T07:11:11;19.53;;;8.97;;
77423;SDS011;66494;47.172;14.678;2024-01-15T07:13:11;18.23;;;9.30;;
77423;SDS011;66494;47.172;14.678;2024-01-15T07:15:11;18.13;;;7.68;;
77423;SDS011;66494;47.172;14.678;2024-01-15T07:17:12;21.58;;;9.80;;
77423;SDS011;66494;47.172;14.678;2024-01-15T07:19:12;22.83;;;9.93;;
77423;SDS011;66494;47.172;14.678;2024-01-15T07:21:13;16.58;;;7.95;;
77423;SDS011;66494;47.172;14.678;2024-01-15T07:23:13;16.40;;;8.07;;
77423;SDS011;66494;47.172;14.678;2024-01-15T07:25:13;12.25;;;5.70;;
77423;SDS011;66494;47.172;14.678;2024-01-15T07:27:14;9.35;;;5.15;;
77423;SDS011;66494;47.172;14.678;2024-01-15T07:29:14;14.90;;;5.95;;
77423;SDS011;66494;47.172;14.678;2024-01-15T07:31:17;13.95;;;6.20;;
77423;SDS011;66494;47.172;14.678;2024-01-15T07:32:18;15.63;;;7.03;;
77423;SDS011;66494;47.172;14.678;2024-01-15T07:34:18;22.40;;;9.48;;
77423;SDS011;66494;47.172;14.678;2024-01-15T07:36:19;22.93;;;9.17;;
77423;SDS011;66494;47.172;14.678;2024-01-15T07:38:19;17.50;;;8.18;;
77423;SDS011;66494;47.172;14.678;2024-01-15T07:40:20;24.10;;;8.35;;
77423;SDS011;66494;47.172;14.678;2024-01-15T07:42:20;24.55;;;9.00;;
77423;SDS011;66494;47.172;14.678;2024-01-15T07:44:20;21.88;;;8.25;;
77423;SDS011;66494;47.172;14.678;2024-01-15T07:46:21;14.30;;;7.40;;
77423;SDS011;66494;47.172;14.678;2024-01-15T07:48:21;24.50;;;11.90;;
77423;SDS011;66494;47.172;14.678;2024-01-15T07:50:23;16.60;;;7.93;;
77423;SDS011;66494;47.172;14.678;2024-01-15T07:52:24;27.60;;;11.40;;
77423;SDS011;66494;47.172;14.678;2024-01-15T07:54:24;21.10;;;10.05;;
77423;SDS011;66494;47.172;14.678;2024-01-15T07:56:24;54.67;;;22.83;;
77423;SDS011;66494;47.172;14.678;2024-01-15T07:57:26;62.00;;;30.65;;
77423;SDS011;66494;47.172;14.678;2024-01-15T07:59:27;47.67;;;23.27;;
77423;SDS011;66494;47.172;14.678;2024-01-15T08:01:27;34.38;;;14.80;;
77423;SDS011;66494;47.172;14.678;2024-01-15T08:03:28;22.27;;;10.50;;
77423;SDS011;66494;47.172;14.678;2024-01-15T08:05:28;21.17;;;9.88;;
77423;SDS011;66494;47.172;14.678;2024-01-15T08:07:29;22.67;;;10.00;;
77423;SDS011;66494;47.172;14.678;2024-01-15T08:09:29;29.02;;;14.20;;
77423;SDS011;66494;47.172;14.678;2024-01-15T08:11:29;22.27;;;11.88;;
77423;SDS011;66494;47.172;14.678;2024-01-15T08:13:30;18.60;;;9.33;;
77423;SDS011;66494;47.172;14.678;2024-01-15T08:15:30;17.17;;;7.85;;
77423;SDS011;66494;47.172;14.678;2024-01-15T08:17:31;18.23;;;9.40;;
77423;SDS011;66494;47.172;14.678;2024-01-15T08:19:32;16.70;;;9.20;;
77423;SDS011;66494;47.172;14.678;2024-01-15T08:21:32;15.77;;;8.35;;
77423;SDS011;66494;47.172;14.678;2024-01-15T08:23:34;14.90;;;7.65;;
77423;SDS011;66494;47.172;14.678;2024-01-15T08:24:34;14.80;;;8.30;;
77423;SDS011;66494;47.172;14.678;2024-01-15T08:26:34;22.30;;;8.23;;
77423;SDS011;66494;47.172;14.678;2024-01-15T08:28:35;17.67;;;7.32;;
77423;SDS011;66494;47.172;14.678;2024-01-15T08:30:35;14.73;;;7.32;;
77423;SDS011;66494;47.172;14.678;2024-01-15T08:32:36;15.15;;;8.07;;
77423;SDS011;66494;47.172;14.678;2024-01-15T08:33:40;15.35;;;8.98;;
77423;SDS011;66494;47.172;14.678;2024-01-15T08:34:41;17.35;;;8.95;;
77423;SDS011;66494;47.172;14.678;2024-01-15T08:35:42;17.38;;;9.18;;
77423;SDS011;66494;47.172;14.678;2024-01-15T08:36:42;17.65;;;7.97;;
77423;SDS011;66494;47.172;14.678;2024-01-15T08:38:42;13.93;;;7.40;;
77423;SDS011;66494;47.172;14.678;2024-01-15T08:40:43;14.23;;;7.93;;
77423;SDS011;66494;47.172;14.678;2024-01-15T08:41:43;16.70;;;8.48;;
77423;SDS011;66494;47.172;14.678;2024-01-15T08:43:43;13.98;;;7.72;;
77423;SDS011;66494;47.172;14.678;2024-01-15T08:45:44;14.40;;;7.07;;
77423;SDS011;66494;47.172;14.678;2024-01-15T08:47:45;20.33;;;8.20;;
77423;SDS011;66494;47.172;14.678;2024-01-15T08:49:45;18.90;;;6.93;;
77423;SDS011;66494;47.172;14.678;2024-01-15T08:50:46;20.25;;;9.55;;
77423;SDS011;66494;47.172;14.678;2024-01-15T08:52:47;20.85;;;8.05;;
77423;SDS011;66494;47.172;14.678;2024-01-15T08:54:48;12.52;;;6.55;;
77423;SDS011;66494;47.172;14.678;2024-01-15T08:55:48;12.73;;;6.38;;
77423;SDS011;66494;47.172;14.678;2024-01-15T08:57:49;13.87;;;6.93;;
77423;SDS011;66494;47.172;14.678;2024-01-15T08:59:50;14.85;;;6.90;;
77423;SDS011;66494;47.172;14.678;2024-01-15T09:01:51;14.80;;;7.93;;
77423;SDS011;66494;47.172;14.678;2024-01-15T09:03:52;17.13;;;7.27;;
77423;SDS011;66494;47.172;14.678;2024-01-15T09:05:52;15.35;;;8.30;;
77423;SDS011;66494;47.172;14.678;2024-01-15T09:06:53;18.30;;;7.95;;
77423;SDS011;66494;47.172;14.678;2024-01-15T09:08:53;16.35;;;7.80;;
77423;SDS011;66494;47.172;14.678;2024-01-15T09:10:53;15.55;;;6.80;;
77423;SDS011;66494;47.172;14.678;2024-01-15T09:12:54;17.50;;;7.63;;
77423;SDS011;66494;47.172;14.678;2024-01-15T09:14:54;12.43;;;6.43;;
77423;SDS011;66494;47.172;14.678;2024-01-15T09:15:54;15.15;;;7.10;;
77423;SDS011;66494;47.172;14.678;2024-01-15T09:17:56;12.02;;;4.72;;
77423;SDS011;66494;47.172;14.678;2024-01-15T09:18:58;12.98;;;5.57;;
77423;SDS011;66494;47.172;14.678;2024-01-15T09:19:58;15.07;;;5.85;;
77423;SDS011;66494;47.172;14.678;2024-01-15T09:21:59;11.75;;;6.45;;
77423;SDS011;66494;47.172;14.678;2024-01-15T09:23:59;12.52;;;5.10;;
77423;SDS011;66494;47.172;14.678;2024-01-15T09:24:59;9.57;;;4.65;;
77423;SDS011;66494;47.172;14.678;2024-01-15T09:27:00;8.40;;;5.03;;
77423;SDS011;66494;47.172;14.678;2024-01-15T09:28:00;13.35;;;5.75;;
77423;SDS011;66494;47.172;14.678;2024-01-15T09:30:01;11.90;;;5.32;;
77423;SDS011;66494;47.172;14.678;2024-01-15T09:31:02;11.65;;;6.32;;
77423;SDS011;66494;47.172;14.678;2024-01-15T09:32:03;9.27;;;5.20;;
77423;SDS011;66494;47.172;14.678;2024-01-15T09:33:04;9.40;;;4.97;;
77423;SDS011;66494;47.172;14.678;2024-01-15T09:34:04;9.75;;;4.70;;
77423;SDS011;66494;47.172;14.678;2024-01-15T09:35:05;14.68;;;6.88;;
77423;SDS011;66494;47.172;14.678;2024-01-15T09:36:06;12.27;;;5.43;;
77423;SDS011;66494;47.172;14.678;2024-01-15T09:37:06;13.27;;;6.15;;
77423;SDS011;66494;47.172;14.678;2024-01-15T09:39:07;10.30;;;4.97;;
77423;SDS011;66494;47.172;14.678;2024-01-15T09:40:08;7.40;;;4.68;;
77423;SDS011;66494;47.172;14.678;2024-01-15T09:41:12;12.55;;;5.50;;
77423;SDS011;66494;47.172;14.678;2024-01-15T09:42:12;11.70;;;4.93;;
77423;SDS011;66494;47.172;14.678;2024-01-15T09:44:14;8.87;;;4.40;;
77423;SDS011;66494;47.172;14.678;2024-01-15T09:46:15;10.13;;;4.05;;
77423;SDS011;66494;47.172;14.678;2024-01-15T09:48:16;9.13;;;3.85;;
77423;SDS011;66494;47.172;14.678;2024-01-15T09:50:17;6.07;;;3.03;;
77423;SDS011;66494;47.172;14.678;2024-01-15T09:51:17;10.88;;;4.45;;
77423;SDS011;66494;47.172;14.678;2024-01-15T09:53:18;8.13;;;4.10;;
77423;SDS011;66494;47.172;14.678;2024-01-15T09:55:18;8.10;;;3.47;;
77423;SDS011;66494;47.172;14.678;2024-01-15T09:57:19;8.27;;;4.60;;
77423;SDS011;66494;47.172;14.678;2024-01-15T09:59:20;8.93;;;3.72;;
77423;SDS011;66494;47.172;14.678;2024-01-15T10:00:22;9.25;;;3.65;;
77423;SDS011;66494;47.172;14.678;2024-01-15T10:01:23;6.75;;;3.85;;
77423;SDS011;66494;47.172;14.678;2024-01-15T10:03:23;9.18;;;4.43;;
77423;SDS011;66494;47.172;14.678;2024-01-15T10:04:23;7.25;;;4.10;;
77423;SDS011;66494;47.172;14.678;2024-01-15T10:05:24;10.00;;;4.47;;